createdAt,value
2022-10-29T00:00:36.430Z,99317.56
2022-10-29T00:03:03.092Z,99306.94
2022-10-29T00:05:29.648Z,99307.03
2022-10-29T00:07:56.395Z,99301.03
2022-10-29T00:10:23.214Z,99303.44
2022-10-29T00:12:49.614Z,99298.00
2022-10-29T00:15:16.206Z,99297.44
2022-10-29T00:17:42.615Z,99297.13
2022-10-29T00:20:09.539Z,99289.78
2022-10-29T00:22:36.087Z,99295.31
2022-10-29T00:25:02.522Z,99297.84
2022-10-29T00:27:28.950Z,99294.25
2022-10-29T00:29:55.698Z,99295.56
2022-10-29T00:32:22.117Z,99295.56
2022-10-29T00:34:48.492Z,99304.75
2022-10-29T00:37:14.904Z,99295.25
2022-10-29T00:39:41.316Z,99296.22
2022-10-29T00:42:15.238Z,99293.44
2022-10-29T00:44:42.079Z,99293.13
2022-10-29T00:47:26.208Z,99286.25
2022-10-29T00:50:01.037Z,99288.50
2022-10-29T00:52:30.844Z,99288.13
2022-10-29T00:55:00.126Z,99276.03
2022-10-29T00:57:33.544Z,99281.94
2022-10-29T01:00:00.052Z,99276.50
2022-10-29T01:02:27.369Z,99285.94
2022-10-29T01:04:54.001Z,99289.44
2022-10-29T01:07:22.290Z,99287.25
2022-10-29T01:09:49.956Z,99290.03
2022-10-29T01:12:53.899Z,99292.53
2022-10-29T01:15:29.023Z,99297.09
2022-10-29T01:18:21.190Z,99286.72
2022-10-29T01:21:09.309Z,99289.84
2022-10-29T01:24:16.230Z,99280.09
2022-10-29T01:26:48.801Z,99288.13
2022-10-29T01:29:24.708Z,99290.81
2022-10-29T01:32:05.035Z,99277.72
2022-10-29T01:34:56.419Z,99273.84
2022-10-29T01:37:54.466Z,99267.09
2022-10-29T01:40:32.115Z,99263.13
2022-10-29T01:45:55.806Z,99269.53
2022-10-29T01:48:33.245Z,99270.03
2022-10-29T01:51:04.845Z,99265.81
2022-10-29T01:53:34.677Z,99257.97
2022-10-29T01:56:01.062Z,99260.41
2022-10-29T01:58:27.843Z,99259.47
2022-10-29T02:01:09.360Z,99254.06
2022-10-29T02:03:49.135Z,99250.28
2022-10-29T02:06:42.159Z,99256.13
2022-10-29T02:09:19.915Z,99251.69
2022-10-29T02:11:59.420Z,99244.06
2022-10-29T02:14:50.318Z,99248.66
2022-10-29T02:17:17.210Z,99249.59
2022-10-29T02:19:43.819Z,99248.78
2022-10-29T02:22:10.247Z,99243.72
2022-10-29T02:24:36.651Z,99243.72
2022-10-29T02:27:03.092Z,99247.50
2022-10-29T02:29:29.526Z,99248.97
2022-10-29T02:31:55.930Z,99238.47
2022-10-29T02:34:22.350Z,99232.44
2022-10-29T02:36:48.773Z,99229.47
2022-10-29T02:39:15.174Z,99232.81
2022-10-29T02:41:41.602Z,99225.94
2022-10-29T02:44:08.011Z,99219.50
2022-10-29T02:46:39.638Z,99230.78
2022-10-29T02:49:07.268Z,99228.47
2022-10-29T02:51:34.011Z,99233.06
2022-10-29T02:54:00.421Z,99231.94
2022-10-29T02:56:26.857Z,99224.22
2022-10-29T02:58:53.231Z,99222.97
2022-10-29T03:01:19.831Z,99227.50
2022-10-29T03:03:46.360Z,99219.53
2022-10-29T03:06:14.941Z,99218.81
2022-10-29T03:08:41.506Z,99216.84
2022-10-29T03:11:08.384Z,99213.41
2022-10-29T03:13:34.817Z,99206.88
2022-10-29T03:16:01.351Z,99212.69
2022-10-29T03:18:27.837Z,99210.22
2022-10-29T03:20:54.304Z,99203.53
2022-10-29T03:23:20.770Z,99213.59
2022-10-29T03:25:55.543Z,99208.50
2022-10-29T03:28:24.031Z,99209.72
2022-10-29T03:30:50.605Z,99203.41
2022-10-29T03:33:17.012Z,99201.97
2022-10-29T03:35:43.561Z,99209.09
2022-10-29T03:38:10.122Z,99201.41
2022-10-29T03:40:36.524Z,99205.09
2022-10-29T03:43:03.047Z,99194.38
2022-10-29T03:45:29.499Z,99200.81
2022-10-29T03:47:57.571Z,99191.00
2022-10-29T03:50:24.320Z,99206.41
2022-10-29T03:52:50.744Z,99198.38
2022-10-29T03:55:17.250Z,99192.00
2022-10-29T03:57:43.742Z,99203.97
2022-10-29T04:00:10.523Z,99199.56
2022-10-29T04:02:37.083Z,99197.88
2022-10-29T04:05:03.775Z,99201.03
2022-10-29T04:07:30.159Z,99206.44
2022-10-29T04:09:56.563Z,99204.53
2022-10-29T04:12:22.947Z,99201.44
2022-10-29T04:17:20.721Z,99200.94
2022-10-29T04:19:47.165Z,99199.63
2022-10-29T04:28:41.818Z,99200.53
2022-10-29T04:30:32.935Z,99202.66
2022-10-29T04:33:00.406Z,99204.28
2022-10-29T04:35:28.611Z,99203.78
2022-10-29T04:37:55.473Z,99197.25
2022-10-29T04:40:24.423Z,99204.22
2022-10-29T04:42:51.002Z,99209.06
2022-10-29T04:45:17.998Z,99197.16
2022-10-29T04:47:44.795Z,99202.81
2022-10-29T04:50:11.209Z,99192.56
2022-10-29T04:52:37.626Z,99207.22
2022-10-29T04:55:04.389Z,99206.91
2022-10-29T04:57:30.843Z,99212.06
2022-10-29T04:59:57.256Z,99210.50
2022-10-29T05:02:23.738Z,99206.41
2022-10-29T05:04:50.131Z,99199.19
2022-10-29T05:07:16.535Z,99198.88
2022-10-29T05:09:42.930Z,99200.31
2022-10-29T05:12:09.338Z,99191.84
2022-10-29T05:14:35.745Z,99189.00
2022-10-29T05:17:02.225Z,99196.25
2022-10-29T05:19:28.697Z,99188.19
2022-10-29T05:21:55.128Z,99188.09
2022-10-29T05:24:21.592Z,99185.16
2022-10-29T05:26:48.035Z,99184.34
2022-10-29T05:29:14.414Z,99183.19
2022-10-29T05:31:40.819Z,99189.47
2022-10-29T05:34:07.258Z,99188.84
2022-10-29T05:36:33.650Z,99179.44
2022-10-29T05:39:00.075Z,99173.44
2022-10-29T05:41:26.492Z,99172.13
2022-10-29T05:43:52.917Z,99169.66
2022-10-29T05:46:19.852Z,99173.69
2022-10-29T05:48:46.409Z,99175.50
2022-10-29T05:51:12.826Z,99173.28
2022-10-29T05:53:39.307Z,99171.09
2022-10-29T05:56:06.227Z,99167.34
2022-10-29T05:58:32.650Z,99168.66
2022-10-29T06:00:59.051Z,99165.19
2022-10-29T06:03:25.538Z,99163.25
2022-10-29T06:05:52.009Z,99167.25
2022-10-29T06:08:18.753Z,99172.97
2022-10-29T06:10:45.178Z,99168.97
2022-10-29T06:13:13.243Z,99170.53
2022-10-29T06:15:39.968Z,99166.25
2022-10-29T06:18:06.739Z,99159.53
2022-10-29T06:20:33.190Z,99168.88
2022-10-29T06:22:59.951Z,99162.75
2022-10-29T06:25:27.368Z,99159.63
2022-10-29T06:28:05.176Z,99158.22
2022-10-29T06:30:33.957Z,99157.47
2022-10-29T06:33:00.899Z,99158.03
2022-10-29T06:35:27.670Z,99153.66
2022-10-29T06:37:54.783Z,99160.13
2022-10-29T06:40:21.706Z,99168.00
2022-10-29T06:42:48.150Z,99158.66
2022-10-29T06:45:14.959Z,99165.69
2022-10-29T06:47:42.788Z,99160.94
2022-10-29T06:50:10.905Z,99167.34
2022-10-29T06:52:37.756Z,99164.69
2022-10-29T06:55:05.903Z,99176.50
2022-10-29T06:57:32.622Z,99173.38
2022-10-29T07:00:02.403Z,99172.56
2022-10-29T07:02:32.359Z,99161.84
2022-10-29T07:04:58.758Z,99167.59
2022-10-29T07:07:28.319Z,99173.63
2022-10-29T07:09:54.750Z,99170.91
2022-10-29T07:12:21.145Z,99162.28
2022-10-29T07:14:47.542Z,99168.81
2022-10-29T07:17:13.955Z,99161.34
2022-10-29T07:19:40.433Z,99170.41
2022-10-29T07:22:06.839Z,99174.50
2022-10-29T07:24:33.250Z,99172.09
2022-10-29T07:26:59.776Z,99174.06
2022-10-29T07:29:26.187Z,99173.19
2022-10-29T07:31:52.610Z,99170.31
2022-10-29T07:34:19.034Z,99171.78
2022-10-29T07:36:45.427Z,99184.59
2022-10-29T07:39:11.823Z,99180.13
2022-10-29T07:41:38.224Z,99185.31
2022-10-29T07:44:04.664Z,99188.41
2022-10-29T07:46:31.062Z,99184.66
2022-10-29T07:48:57.522Z,99188.53
2022-10-29T07:51:23.902Z,99191.56
2022-10-29T07:53:50.302Z,99186.28
2022-10-29T07:56:16.699Z,99190.72
2022-10-29T07:58:43.086Z,99190.22
2022-10-29T08:01:09.576Z,99187.69
2022-10-29T08:03:36.344Z,99181.81
2022-10-29T08:06:02.771Z,99187.00
2022-10-29T08:08:29.274Z,99173.63
2022-10-29T08:11:00.171Z,99183.69
2022-10-29T08:13:26.718Z,99180.09
2022-10-29T08:15:53.312Z,99166.88
2022-10-29T08:18:19.815Z,99176.53
2022-10-29T08:20:46.650Z,99167.22
2022-10-29T08:23:14.218Z,99161.53
2022-10-29T08:25:42.667Z,99157.44
2022-10-29T08:28:12.183Z,99153.06
2022-10-29T08:30:39.251Z,99148.41
2022-10-29T08:33:05.853Z,99155.63
2022-10-29T08:35:33.314Z,99156.38
2022-10-29T08:37:59.944Z,99148.84
2022-10-29T08:40:58.996Z,99141.19
2022-10-29T08:43:31.211Z,99145.56
2022-10-29T08:45:57.785Z,99135.91
2022-10-29T08:48:39.877Z,99146.72
2022-10-29T08:51:18.510Z,99147.22
2022-10-29T08:53:58.738Z,99140.69
2022-10-29T08:56:36.885Z,99144.19
2022-10-29T08:59:13.318Z,99149.22
2022-10-29T09:01:39.929Z,99153.56
2022-10-29T09:04:27.991Z,99147.13
2022-10-29T09:07:34.371Z,99155.53
2022-10-29T09:10:19.109Z,99151.47
2022-10-29T09:13:04.806Z,99141.84
2022-10-29T09:15:57.779Z,99142.66
2022-10-29T09:18:47.782Z,99143.75
2022-10-29T09:21:32.150Z,99138.91
2022-10-29T09:24:15.352Z,99143.63
2022-10-29T09:26:47.539Z,99142.09
2022-10-29T09:29:32.845Z,99147.31
2022-10-29T09:32:11.363Z,99150.34
2022-10-29T09:34:46.007Z,99147.59
2022-10-29T09:37:23.711Z,99148.72
2022-10-29T09:39:50.111Z,99160.53
2022-10-29T09:42:44.552Z,99163.34
2022-10-29T09:45:18.486Z,99166.56
2022-10-29T09:48:08.172Z,99165.44
2022-10-29T09:50:52.708Z,99164.28
2022-10-29T09:53:19.261Z,99162.03
2022-10-29T09:55:53.618Z,99162.50
2022-10-29T09:58:24.908Z,99158.06
2022-10-29T10:00:53.039Z,99162.47
2022-10-29T10:03:30.246Z,99165.19
2022-10-29T10:06:10.986Z,99161.91
2022-10-29T10:09:06.575Z,99168.75
2022-10-29T10:11:39.729Z,99163.56
2022-10-29T10:14:27.440Z,99159.75
2022-10-29T10:17:01.391Z,99164.00
2022-10-29T10:19:30.795Z,99168.19
2022-10-29T10:22:02.988Z,99163.44
2022-10-29T10:24:29.531Z,99160.84
2022-10-29T10:26:55.950Z,99165.00
2022-10-29T10:29:24.577Z,99158.16
2022-10-29T10:32:13.595Z,99159.97
2022-10-29T10:34:40.114Z,99153.84
2022-10-29T10:37:09.224Z,99151.16
2022-10-29T10:39:37.230Z,99150.28
2022-10-29T10:42:06.877Z,99143.78
2022-10-29T10:44:33.893Z,99137.66
2022-10-29T10:47:06.892Z,99142.00
2022-10-29T10:49:38.655Z,99136.06
2022-10-29T10:52:18.488Z,99124.59
2022-10-29T10:54:55.238Z,99132.31
2022-10-29T10:57:25.805Z,99124.63
2022-10-29T11:00:18.623Z,99120.63
2022-10-29T11:03:08.762Z,99130.28
2022-10-29T11:05:43.119Z,99123.94
2022-10-29T11:08:18.871Z,99117.25
2022-10-29T11:10:53.457Z,99106.50
2022-10-29T11:13:27.081Z,99104.66
2022-10-29T11:16:12.072Z,99112.81
2022-10-29T11:18:48.382Z,99104.84
2022-10-29T11:21:35.159Z,99099.81
2022-10-29T11:24:02.071Z,99106.00
2022-10-29T11:26:37.481Z,99102.09
2022-10-29T11:29:09.920Z,99092.16
2022-10-29T11:32:14.369Z,99088.22
2022-10-29T11:35:04.203Z,99077.06
2022-10-29T11:38:07.893Z,99073.72
2022-10-29T11:40:44.786Z,99076.38
2022-10-29T11:43:12.621Z,99077.84
2022-10-29T11:45:50.025Z,99075.47
2022-10-29T11:48:30.967Z,99072.78
2022-10-29T11:51:18.599Z,99068.19
2022-10-29T11:54:09.955Z,99071.06
2022-10-29T11:56:53.215Z,99067.63
2022-10-29T11:59:34.378Z,99064.16
2022-10-29T12:02:37.943Z,99053.31
2022-10-29T12:05:21.005Z,99052.56
2022-10-29T12:08:05.950Z,99044.88
2022-10-29T12:10:50.685Z,99048.03
2022-10-29T12:13:30.732Z,99042.28
2022-10-29T12:16:00.159Z,99035.31
2022-10-29T12:18:44.830Z,99040.97
2022-10-29T12:21:19.930Z,99027.56
2022-10-29T12:24:20.726Z,99023.19
2022-10-29T12:27:14.463Z,99014.28
2022-10-29T12:29:56.876Z,99009.22
2022-10-29T12:32:35.588Z,99000.25
2022-10-29T12:35:20.311Z,99003.50
2022-10-29T12:38:14.551Z,99004.41
2022-10-29T12:40:44.726Z,99002.13
2022-10-29T12:43:19.496Z,99002.00
2022-10-29T12:49:03.462Z,98991.50
2022-10-29T12:52:02.532Z,98986.28
2022-10-29T12:54:43.219Z,98984.78
2022-10-29T12:57:12.569Z,98982.72
2022-10-29T12:59:40.476Z,98983.63
2022-10-29T13:02:36.420Z,98981.47
2022-10-29T13:05:05.724Z,98974.91
2022-10-29T13:07:33.299Z,98972.03
2022-10-29T13:10:25.138Z,98963.63
2022-10-29T13:13:16.483Z,98962.59
2022-10-29T13:16:02.523Z,98963.31
2022-10-29T13:18:46.089Z,98966.84
2022-10-29T13:21:12.572Z,98963.06
2022-10-29T13:23:39.076Z,98958.50
2022-10-29T13:26:07.952Z,98957.53
2022-10-29T13:28:37.131Z,98955.19
2022-10-29T13:31:03.479Z,98947.38
2022-10-29T13:33:29.858Z,98954.59
2022-10-29T13:36:26.803Z,98945.72
2022-10-29T13:39:05.279Z,98950.34
2022-10-29T13:41:42.741Z,98940.06
2022-10-29T13:44:12.668Z,98940.09
2022-10-29T13:47:02.532Z,98936.44
2022-10-29T13:49:44.964Z,98931.13
2022-10-29T13:52:16.340Z,98931.28
2022-10-29T13:54:46.813Z,98930.53
2022-10-29T13:57:19.244Z,98931.75
2022-10-29T13:59:53.946Z,98937.25
2022-10-29T14:02:33.509Z,98931.47
2022-10-29T14:05:15.714Z,98932.16
2022-10-29T14:07:51.427Z,98933.78
2022-10-29T14:10:23.690Z,98926.00
2022-10-29T14:12:55.749Z,98927.97
2022-10-29T14:15:22.602Z,98930.88
2022-10-29T14:17:49.073Z,98929.75
2022-10-29T14:20:27.328Z,98930.06
2022-10-29T14:22:54.880Z,98923.56
2022-10-29T14:25:24.714Z,98932.59
2022-10-29T14:28:10.186Z,98927.25
2022-10-29T14:30:36.936Z,98917.75
2022-10-29T14:33:27.445Z,98923.66
2022-10-29T14:36:19.390Z,98926.06
2022-10-29T14:38:48.843Z,98923.47
2022-10-29T14:41:16.511Z,98924.38
2022-10-29T14:43:44.538Z,98921.44
2022-10-29T14:46:23.842Z,98913.81
2022-10-29T14:48:59.523Z,98910.22
2022-10-29T14:51:27.114Z,98909.53
2022-10-29T14:54:01.740Z,98911.25
2022-10-29T14:56:35.505Z,98914.00
2022-10-29T14:59:07.511Z,98913.03
2022-10-29T15:01:34.196Z,98914.91
2022-10-29T15:04:01.889Z,98913.63
2022-10-29T15:06:30.042Z,98909.28
2022-10-29T15:08:59.740Z,98908.72
2022-10-29T15:11:39.658Z,98911.41
2022-10-29T15:14:24.211Z,98914.09
2022-10-29T15:16:50.852Z,98909.47
2022-10-29T15:19:18.059Z,98910.28
2022-10-29T15:21:45.069Z,98909.56
2022-10-29T15:24:20.910Z,98904.09
2022-10-29T15:26:54.506Z,98911.00
2022-10-29T15:29:30.595Z,98904.84
2022-10-29T15:32:00.031Z,98910.53
2022-10-29T15:34:32.522Z,98913.59
2022-10-29T15:37:19.265Z,98908.22
2022-10-29T15:40:10.278Z,98913.78
2022-10-29T15:42:37.168Z,98914.63
2022-10-29T15:47:41.043Z,98905.53
2022-10-29T15:50:11.901Z,98902.00
2022-10-29T15:52:42.086Z,98907.66
2022-10-29T15:55:27.074Z,98906.13
2022-10-29T15:57:59.519Z,98910.09
2022-10-29T16:00:26.248Z,98900.88
2022-10-29T16:02:55.564Z,98905.34
2022-10-29T16:05:22.201Z,98911.06
2022-10-29T16:07:48.682Z,98912.56
2022-10-29T16:10:21.105Z,98909.91
2022-10-29T16:12:49.544Z,98917.00
2022-10-29T16:15:19.364Z,98912.94
2022-10-29T16:17:46.482Z,98918.19
2022-10-29T16:20:15.624Z,98920.50
2022-10-29T16:22:42.061Z,98916.25
2022-10-29T16:25:38.114Z,98916.69
2022-10-29T16:28:04.654Z,98916.47
2022-10-29T16:30:31.602Z,98913.97
2022-10-29T16:32:58.244Z,98917.16
2022-10-29T16:35:27.166Z,98916.03
2022-10-29T16:37:56.021Z,98919.13
2022-10-29T16:40:26.078Z,98906.75
2022-10-29T16:42:55.047Z,98911.91
2022-10-29T16:45:24.943Z,98913.53
2022-10-29T16:47:52.314Z,98908.78
2022-10-29T16:50:24.107Z,98919.56
2022-10-29T16:53:08.780Z,98925.84
2022-10-29T16:55:37.701Z,98920.31
2022-10-29T16:58:06.785Z,98927.25
2022-10-29T17:00:36.326Z,98920.66
2022-10-29T17:03:06.752Z,98917.44
2022-10-29T17:05:39.072Z,98926.88
2022-10-29T17:08:06.163Z,98932.81
2022-10-29T17:10:32.708Z,98926.19
2022-10-29T17:13:00.001Z,98934.31
2022-10-29T17:15:26.928Z,98930.84
2022-10-29T17:17:53.428Z,98927.88
2022-10-29T17:20:20.211Z,98922.94
2022-10-29T17:22:46.732Z,98929.06
2022-10-29T17:25:13.162Z,98927.94
2022-10-29T17:27:43.234Z,98932.63
2022-10-29T17:30:10.690Z,98932.38
2022-10-29T17:32:37.181Z,98931.09
2022-10-29T17:35:04.152Z,98938.72
2022-10-29T17:37:30.694Z,98939.63
2022-10-29T17:40:00.322Z,98940.72
2022-10-29T17:42:30.528Z,98948.34
2022-10-29T17:44:56.939Z,98946.78
2022-10-29T17:47:23.343Z,98944.53
2022-10-29T17:49:49.767Z,98960.19
2022-10-29T17:52:17.420Z,98947.97
2022-10-29T17:54:43.828Z,98945.31
2022-10-29T17:57:10.218Z,98946.38
2022-10-29T17:59:36.634Z,98950.75
2022-10-29T18:02:03.168Z,98951.22
2022-10-29T18:04:29.685Z,98954.19
2022-10-29T18:06:56.162Z,98953.63
2022-10-29T18:09:22.635Z,98952.94
2022-10-29T18:11:50.412Z,98948.31
2022-10-29T18:14:16.954Z,98960.81
2022-10-29T18:16:43.433Z,98949.97
2022-10-29T18:19:09.847Z,98953.56
2022-10-29T18:21:36.323Z,98957.13
2022-10-29T18:24:02.787Z,98949.53
2022-10-29T18:26:33.975Z,98958.25
2022-10-29T18:29:02.551Z,98964.84
2022-10-29T18:31:30.900Z,98960.78
2022-10-29T18:33:58.755Z,98955.63
2022-10-29T18:36:25.451Z,98955.63
2022-10-29T18:38:53.828Z,98954.63
2022-10-29T18:41:20.690Z,98955.75
2022-10-29T18:43:47.540Z,98954.63
2022-10-29T18:46:14.654Z,98954.66
2022-10-29T18:48:45.794Z,98954.63
2022-10-29T18:51:19.741Z,98956.34
2022-10-29T18:53:46.485Z,98954.63
2022-10-29T18:56:15.302Z,98954.16
2022-10-29T18:58:42.204Z,98961.44
2022-10-29T19:01:14.303Z,98952.22
2022-10-29T19:03:41.819Z,98949.84
2022-10-29T19:06:11.114Z,98954.22
2022-10-29T19:08:39.635Z,98963.22
2022-10-29T19:11:09.116Z,98959.72
2022-10-29T19:13:35.951Z,98969.81
2022-10-29T19:16:04.850Z,98962.13
2022-10-29T19:18:32.132Z,98969.00
2022-10-29T19:21:06.515Z,98966.28
2022-10-29T19:23:33.606Z,98965.16
2022-10-29T19:26:08.516Z,98973.88
2022-10-29T19:28:35.675Z,98980.44
2022-10-29T19:31:07.782Z,98983.66
2022-10-29T19:33:34.707Z,98984.22
2022-10-29T19:36:01.743Z,98987.03
2022-10-29T19:38:28.569Z,98990.38
2022-10-29T19:40:58.281Z,98995.34
2022-10-29T19:43:25.409Z,99009.44
2022-10-29T19:45:52.483Z,99006.16
2022-10-29T19:48:19.185Z,99010.00
2022-10-29T19:50:46.174Z,99017.63
2022-10-29T19:53:12.827Z,99011.09
2022-10-29T19:55:40.658Z,99016.03
2022-10-29T19:58:07.467Z,99018.16
2022-10-29T20:00:33.897Z,99014.38
2022-10-29T20:03:00.632Z,99017.16
2022-10-29T20:05:27.292Z,99014.94
2022-10-29T20:07:53.770Z,99020.09
2022-10-29T20:10:20.166Z,99020.38
2022-10-29T20:12:46.582Z,99016.59
2022-10-29T20:15:13.135Z,99019.84
2022-10-29T20:17:39.560Z,99015.50
2022-10-29T20:20:06.696Z,99013.84
2022-10-29T20:22:33.239Z,99019.59
2022-10-29T20:24:59.702Z,99021.78
2022-10-29T20:27:26.107Z,99015.56
2022-10-29T20:29:52.566Z,99021.00
2022-10-29T20:32:18.980Z,99008.50
2022-10-29T20:34:45.362Z,99017.72
2022-10-29T20:37:11.899Z,99012.31
2022-10-29T20:39:38.307Z,99015.31
2022-10-29T20:42:04.797Z,99014.47
2022-10-29T20:44:31.311Z,99022.63
2022-10-29T20:46:57.789Z,99022.91
2022-10-29T20:49:24.240Z,99021.53
2022-10-29T20:51:50.643Z,99018.56
2022-10-29T20:54:17.056Z,99026.97
2022-10-29T20:56:43.532Z,99025.06
2022-10-29T20:59:09.950Z,99026.69
2022-10-29T21:01:36.465Z,99024.81
2022-10-29T21:04:03.138Z,99021.81
2022-10-29T21:06:29.883Z,99022.09
2022-10-29T21:08:56.495Z,99025.03
2022-10-29T21:11:23.732Z,99025.88
2022-10-29T21:13:50.667Z,99030.19
2022-10-29T21:16:26.434Z,99024.78
2022-10-29T21:19:00.733Z,99021.53
2022-10-29T21:21:28.555Z,99024.78
2022-10-29T21:23:56.795Z,99022.59
2022-10-29T21:26:25.716Z,99023.13
2022-10-29T21:28:53.305Z,99021.47
2022-10-29T21:31:22.597Z,99022.00
2022-10-29T21:33:50.955Z,99017.13
2022-10-29T21:36:18.081Z,99018.47
2022-10-29T21:38:44.533Z,99016.03
2022-10-29T21:41:11.089Z,99007.88
2022-10-29T21:43:38.274Z,99013.03
2022-10-29T21:46:04.896Z,99014.38
2022-10-29T21:48:31.369Z,99015.72
2022-10-29T21:51:04.752Z,99011.13
2022-10-29T21:53:31.391Z,99002.97
2022-10-29T21:55:59.516Z,99007.88
2022-10-29T21:58:26.491Z,99009.22
2022-10-29T22:01:02.520Z,99003.22
2022-10-29T22:03:37.319Z,99010.25
2022-10-29T22:06:09.747Z,99004.53
2022-10-29T22:08:36.213Z,99005.88
2022-10-29T22:11:03.528Z,99009.94
2022-10-29T22:13:30.786Z,99009.31
2022-10-29T22:15:58.297Z,99008.19
2022-10-29T22:18:25.742Z,99002.19
2022-10-29T22:21:03.696Z,99010.84
2022-10-29T22:23:30.038Z,99012.38
2022-10-29T22:25:56.495Z,99008.06
2022-10-29T22:28:22.881Z,99006.97
2022-10-29T22:30:49.215Z,99008.03
2022-10-29T22:33:15.622Z,99008.88
2022-10-29T22:35:41.964Z,99010.19
2022-10-29T22:38:08.366Z,99006.47
2022-10-29T22:40:40.539Z,99010.56
2022-10-29T22:43:07.046Z,99007.50
2022-10-29T22:45:33.465Z,99005.41
2022-10-29T22:47:59.850Z,99000.75
2022-10-29T22:50:26.266Z,98999.13
2022-10-29T22:52:52.654Z,98996.13
2022-10-29T22:55:19.358Z,98997.81
2022-10-29T22:57:45.775Z,98999.19
2022-10-29T23:00:12.779Z,98998.28
2022-10-29T23:02:39.214Z,99002.72
2022-10-29T23:05:06.054Z,98996.72
2022-10-29T23:10:04.058Z,98989.16
2022-10-29T23:12:30.504Z,98993.25
2022-10-29T23:14:56.899Z,98995.41
2022-10-29T23:17:23.323Z,98991.06
2022-10-29T23:19:49.719Z,98991.88
2022-10-29T23:22:16.167Z,98989.16
2022-10-29T23:24:42.622Z,98989.69
2022-10-29T23:27:09.036Z,98989.69
2022-10-29T23:29:35.441Z,98989.59
2022-10-29T23:32:01.856Z,98980.88
2022-10-29T23:34:28.269Z,98987.69
2022-10-29T23:36:54.745Z,98983.88
2022-10-29T23:39:21.142Z,98988.22
2022-10-29T23:41:47.567Z,98984.44
2022-10-29T23:44:13.973Z,98978.75
2022-10-29T23:46:40.371Z,98984.16
2022-10-29T23:49:06.843Z,98985.25
2022-10-29T23:54:04.645Z,98972.72
2022-10-29T23:56:31.066Z,98967.88
2022-10-29T23:58:57.486Z,98958.09
